Los Alamitos Army Air Field
KSLI : rendu visible

Aérodrome :











RETROUVEZ-NOUS SUR...

 
LOGIN :

S'inscrire | Disclaimer

   EN    FR    IT 

 









Légende :    VFR   VFR Marginal   IFR   IFR Intensif   IFR Très Intensif
Visi : 
Plafond : 
>= 8 km
>= 3000ft
5 à 8 km
1000 à 3000 ft
1500m à 5 km
500 à 1000 ft
800 à 1500m
200 à 500 ft
< 800m
< 200 ft
Symboles :   Orages  Brouillard  Fortes neiges  Fortes précipitations  Vent > 20 kt






- Altitude de l'aérodrome : 32 ft


KSLI - Los Alamitos Army Air Field

DERNIER METAR :
  • 201633Z 22015G18KT 7SM -RA BKN035 BKN050 16/08 A2959 RMK AO2A LTG DSNT S RAB33 SLP023

METARs EXPIRÉS :
  • 201558Z 24012KT 7SM SCT035 SCT050 14/08 A2959 RMK AO2A SLP023 T01440077
  • 201458Z 25007KT 7SM BKN033 BKN050 13/09 A2957 RMK AO2A RAE09RAB44E54DZB54E57 SLP016 P0000 T01320093 52013
  • 201444Z 26009KT 7SM -RA BKN034 BKN049 13/09 A2957 RMK AO2A RAE09RAB44 SLP016
  • 201409Z 25007KT 10SM FEW027 SCT034 BKN049 13/10 A2956 RMK AO2A RAE09 SLP013
  • 201358Z AUTO 28010KT 10SM -RA FEW023 SCT032 BKN049 BKN060 14/10 A2955 RMK AO2 RAB52 SLP009 T01390099 PNO $
  • 201352Z AUTO 27010KT 10SM -RA FEW031 SCT049 BKN060 14/09 A2955 RMK AO2 RAB52 SLP009 PNO $

TAF AMD TAF KSLI
Valide du 20 à 15h jusqu'au 21 à 19h UTC


201451Z 2015/2119 24010G20KT 9999 BKN020 QNH2954INS
BECMG 2020/2021 VRB06KT 9999 -SHRA SCT015 OVC030 QNH2956INS TX15/2101Z TN14/2107Z



MET'MAP, la Météo Aéronautique d'un coup d'oeil ! - Copyright ORBIFLY Décembre 2007 - Disclaimer

ORBIFLY MET'MAP TEAM :

Programmation & Développement : Alexandra Zaïnal
Conception & Développement : Baudouin d'Aumeries
Co-Programmation & Développement : Marc-Olivier Méhu
Soutien technique & logistique : Manuel Goepfert

Contact : metmap@orbifly.com




SOURCES & CREDITS :

   NOAA       Earth
Advisory